Scholes International At Galveston Airport
KGLS : now visible

Airfield :











YOU CAN JOIN US ON...

 
LOGIN :

Register | Disclaimer

   EN    FR    IT 

 









Legend :    VFR   Marginal VFR   IFR   Intensive IFR   Very Intensive IFR
Visi :
Ceiling :
>= 8 km
>= 3000ft
5 to 8 km
1000 to 3000 ft
1500m to 5 km
500 to 1000 ft
800 to 1500m
200 to 500 ft
< 800m
< 200 ft
Symbols :   Thunderstorms  Fog  Heavy snow  Heavy precipitations  Wind > 20 kt






- Airport Elevation : 6 ft
- IATA code : GLS


KGLS - Scholes International At Galveston

CURRENT METAR :
  • 041052Z 25004KT 10SM FEW012 28/26 A2994 RMK AO2 SLP139 T02780256

EXPIRED METARs :
  • 040952Z AUTO 27004KT 10SM CLR 28/26 A2994 RMK AO2 SLP137 T02780256
  • 040852Z AUTO 00000KT 10SM SCT017 27/25 A2993 RMK AO2 SLP135 T02720250 56006

TAF KGLS
Valid from the 04 at 06:00 until the 05 at 06:00 UTC


040520Z 0406/0506 VRB06KT P6SM SCT250
FM041000 25008KT P6SM FEW020 SCT030
FM041800 20012KT P6SM SCT250
FM050000 21013KT P6SM SCT025 BKN250
KZHU FIR / North America



MET'MAP, your aeronautical weather chart ! - Copyright ORBIFLY December 2007 - Disclaimer

ORBIFLY MET'MAP TEAM :

Programming & Development : Alexandra Zaïnal
Concept & original design : Baudouin d'Aumeries
Assistance for programming : Marc-Olivier Méhu
Technical & hardware support : Manuel Goepfert

Contact : metmap@orbifly.com




SOURCES & CREDITS :

   NOAA       Earth
Advisory